Time;durP1;ratioP1;P1;durP2;ratioP2;P2;SDS_P1;SDS_P2;PMS_P1;PMS_P2;Temp;Humidity;BMP_temperature;BMP_pressure;BME280_temperature;BME280_humidity;BME280_pressure;Samples;Min_cycle;Max_cycle;Signal;HPM_P1;HPM_P2
2023/08/17 00:01:29;;;;;;;3.40;3.10;;;;;;;22.84;nan;99513.66;5073241;28;20247;-74
2023/08/17 00:03:54;;;;;;;3.53;2.70;;;;;;;22.80;nan;99507.00;5074993;28;20197;-74
2023/08/17 00:06:20;;;;;;;3.53;3.23;;;;;;;22.75;nan;99502.19;5072379;28;20261;-74
2023/08/17 00:08:45;;;;;;;5.03;2.80;;;;;;;22.74;nan;99508.56;5073405;28;20211;-74
2023/08/17 00:11:11;;;;;;;2.73;2.53;;;;;;;22.77;nan;99504.69;5075063;28;20210;-74
2023/08/17 00:13:36;;;;;;;2.43;2.23;;;;;;;22.78;nan;99507.16;5072888;28;20257;-74
2023/08/17 00:16:02;;;;;;;5.43;4.17;;;;;;;22.82;nan;99507.63;5066398;28;20290;-74
2023/08/17 00:18:27;;;;;;;3.17;2.60;;;;;;;22.84;nan;99503.75;5062026;28;20205;-74
2023/08/17 00:20:53;;;;;;;3.90;3.13;;;;;;;22.87;nan;99507.94;5074035;28;20261;-74
2023/08/17 00:23:20;;;;;;;3.40;3.03;;;;;;;22.89;nan;99505.91;5072898;28;20196;-74
2023/08/17 00:25:47;;;;;;;3.97;2.53;;;;;;;22.89;nan;99505.91;5071942;28;20719;-74
2023/08/17 00:28:13;;;;;;;4.43;2.97;;;;;;;22.87;nan;99502.56;5069945;28;20461;-74
2023/08/17 00:30:38;;;;;;;3.47;3.00;;;;;;;22.82;nan;99502.28;5073759;28;20421;-73
2023/08/17 00:33:04;;;;;;;3.67;3.30;;;;;;;22.79;nan;99494.59;5073135;28;20917;-74
2023/08/17 00:35:29;;;;;;;3.43;3.07;;;;;;;22.78;nan;99493.78;5074061;28;20181;-74
2023/08/17 00:37:56;;;;;;;3.07;2.77;;;;;;;22.76;nan;99487.75;5068765;28;20284;-74
2023/08/17 00:40:21;;;;;;;3.80;3.20;;;;;;;22.69;nan;99484.97;5073616;28;20473;-74
2023/08/17 00:42:46;;;;;;;5.03;3.30;;;;;;;22.65;nan;99483.66;5074552;28;20204;-74
2023/08/17 00:45:12;;;;;;;3.57;3.03;;;;;;;22.63;nan;99488.38;5072274;28;20208;-74
2023/08/17 00:47:38;;;;;;;5.17;3.47;;;;;;;22.64;nan;99487.38;5074501;28;20201;-74
2023/08/17 00:50:04;;;;;;;3.57;3.23;;;;;;;22.65;nan;99490.88;5072345;28;20596;-74
2023/08/17 00:52:31;;;;;;;4.10;3.70;;;;;;;22.66;nan;99490.69;5072014;28;20219;-74
2023/08/17 00:55:00;;;;;;;4.50;3.57;;;;;;;22.67;nan;99492.34;5068335;28;20528;-74
2023/08/17 00:57:26;;;;;;;4.03;3.47;;;;;;;22.65;nan;99494.38;5071151;28;20481;-74
2023/08/17 00:59:51;;;;;;;3.67;3.30;;;;;;;22.66;nan;99496.06;5068074;28;20462;-73
2023/08/17 01:02:18;;;;;;;4.53;3.17;;;;;;;22.65;nan;99494.38;5067648;28;20466;-74
2023/08/17 01:04:43;;;;;;;4.70;4.00;;;;;;;22.62;nan;99493.91;5074197;28;20284;-74
2023/08/17 01:07:09;;;;;;;4.13;3.72;;;;;;;22.60;nan;99490.56;5070806;28;21126;-74
2023/08/17 01:09:34;;;;;;;5.10;3.67;;;;;;;22.58;nan;99496.13;5069780;28;20221;-74
2023/08/17 01:12:12;;;;;;;4.13;3.73;;;;;;;22.53;nan;99496.63;5074320;28;20531;-74
2023/08/17 01:14:43;;;;;;;5.50;2.83;;;;;;;22.49;nan;99494.47;5073479;28;20883;-74
2023/08/17 01:17:22;;;;;;;3.20;3.00;;;;;;;22.43;nan;99497.88;5071251;28;20461;-73
2023/08/17 01:19:50;;;;;;;3.47;3.10;;;;;;;22.40;nan;99492.88;5071529;28;20424;-74
2023/08/17 01:22:20;;;;;;;4.40;3.40;;;;;;;22.28;nan;99501.31;5073580;28;20436;-74
2023/08/17 01:24:46;;;;;;;3.87;3.50;;;;;;;22.19;nan;99499.66;5072018;28;20420;-74
2023/08/17 01:27:11;;;;;;;3.50;3.20;;;;;;;22.14;nan;99498.50;5074335;28;20436;-74
2023/08/17 01:29:37;;;;;;;6.20;3.37;;;;;;;22.12;nan;99504.03;5070768;28;20207;-74
2023/08/17 01:32:19;;;;;;;4.40;3.40;;;;;;;22.11;nan;99507.72;5069099;28;20193;-74
2023/08/17 01:34:56;;;;;;;5.90;3.60;;;;;;;22.05;nan;99508.41;5070950;28;20436;-74
2023/08/17 01:37:28;;;;;;;4.07;3.60;;;;;;;21.95;nan;99505.09;5076723;28;20433;-74
2023/08/17 01:39:56;;;;;;;5.23;3.90;;;;;;;21.87;nan;99503.28;5072415;28;20433;-74
2023/08/17 01:42:23;;;;;;;6.80;3.70;;;;;;;21.81;nan;99512.84;5071719;28;21356;-74
2023/08/17 01:44:49;;;;;;;7.60;4.20;;;;;;;21.75;nan;99510.88;5068909;28;20826;-74
2023/08/17 01:47:14;;;;;;;5.23;4.10;;;;;;;21.75;nan;99507.38;5067309;28;20561;-73
2023/08/17 01:49:40;;;;;;;4.23;3.77;;;;;;;21.74;nan;99519.91;5069785;28;20925;-74
2023/08/17 01:52:06;;;;;;;5.53;4.03;;;;;;;21.72;nan;99510.38;5071385;28;20277;-74
2023/08/17 01:54:31;;;;;;;3.80;3.03;;;;;;;21.73;nan;99514.72;5076381;28;20211;-74
2023/08/17 01:56:56;;;;;;;4.93;4.27;;;;;;;21.75;nan;99510.03;5075172;28;20241;-74
2023/08/17 01:59:22;;;;;;;4.00;3.70;;;;;;;21.77;nan;99511.53;5074156;28;20282;-74
2023/08/17 02:01:47;;;;;;;5.47;4.23;;;;;;;21.78;nan;99510.50;5074576;28;20299;-74
2023/08/17 02:04:13;;;;;;;7.93;4.27;;;;;;;21.79;nan;99506.84;5073358;28;20204;-74
2023/08/17 02:06:38;;;;;;;4.33;3.57;;;;;;;21.83;nan;99500.13;5073233;28;20200;-74
2023/08/17 02:09:04;;;;;;;7.50;4.00;;;;;;;21.89;nan;99506.63;5075786;28;20196;-74
2023/08/17 02:11:29;;;;;;;5.03;4.23;;;;;;;21.93;nan;99499.09;5074233;28;20448;-74
2023/08/17 02:13:55;;;;;;;4.87;4.47;;;;;;;21.94;nan;99503.44;5073641;28;20295;-74
2023/08/17 02:16:20;;;;;;;5.13;3.80;;;;;;;21.93;nan;99502.63;5071265;28;20302;-74
2023/08/17 02:18:46;;;;;;;3.47;3.17;;;;;;;21.93;nan;99499.94;5078413;28;20194;-74
2023/08/17 02:21:11;;;;;;;4.67;3.80;;;;;;;21.92;nan;99492.91;5073438;28;20626;-74
2023/08/17 02:23:39;;;;;;;3.60;3.30;;;;;;;21.91;nan;99495.78;5074257;28;20228;-74
2023/08/17 02:26:04;;;;;;;4.70;4.17;;;;;;;21.92;nan;99503.59;5074274;28;20558;-74
2023/08/17 02:28:30;;;;;;;3.67;3.13;;;;;;;21.96;nan;99496.09;5075310;28;20660;-74
2023/08/17 02:30:57;;;;;;;4.27;3.40;;;;;;;21.98;nan;99497.59;5071504;28;20461;-73
2023/08/17 02:33:22;;;;;;;5.43;3.33;;;;;;;22.01;nan;99499.09;5073268;28;20211;-74
2023/08/17 02:35:49;;;;;;;10.83;3.87;;;;;;;22.02;nan;99487.38;5075774;28;20445;-74
2023/08/17 02:38:14;;;;;;;4.90;4.03;;;;;;;22.01;nan;99489.22;5078604;28;20432;-74
2023/08/17 02:40:40;;;;;;;5.40;4.07;;;;;;;22.02;nan;99493.53;5077066;28;20220;-74
2023/08/17 02:43:05;;;;;;;4.60;4.17;;;;;;;22.03;nan;99489.03;5070806;28;20585;-74
2023/08/17 02:45:31;;;;;;;6.47;4.20;;;;;;;22.03;nan;99483.66;5074728;28;20351;-74
2023/08/17 02:47:56;;;;;;;4.73;3.70;;;;;;;22.04;nan;99488.88;5073546;28;20283;-74
2023/08/17 02:50:22;;;;;;;5.73;4.27;;;;;;;22.06;nan;99484.19;5076280;28;20320;-74
2023/08/17 02:52:47;;;;;;;4.13;3.30;;;;;;;22.09;nan;99483.00;5073307;28;20310;-74
2023/08/17 02:55:13;;;;;;;4.63;4.03;;;;;;;22.12;nan;99489.84;5071524;28;20196;-74
2023/08/17 02:57:38;;;;;;;5.77;4.10;;;;;;;22.12;nan;99488.00;5069667;28;20673;-74
2023/08/17 03:00:04;;;;;;;7.17;6.13;;;;;;;22.12;nan;99484.50;5075172;28;20291;-74
2023/08/17 03:02:29;;;;;;;7.77;6.17;;;;;;;22.09;nan;99481.16;5071948;28;20204;-74
2023/08/17 03:04:55;;;;;;;10.17;6.80;;;;;;;22.06;nan;99480.66;5073609;28;20425;-74
2023/08/17 03:07:21;;;;;;;9.90;7.67;;;;;;;22.02;nan;99479.34;5072551;28;20586;-74
2023/08/17 03:09:46;;;;;;;9.37;7.07;;;;;;;22.00;nan;99479.50;5073487;28;20514;-74
2023/08/17 03:12:11;;;;;;;9.10;8.10;;;;;;;22.00;nan;99471.47;5074103;28;20213;-74
2023/08/17 03:14:37;;;;;;;9.30;6.73;;;;;;;22.03;nan;99472.97;5075283;28;20508;-75
2023/08/17 03:17:03;;;;;;;9.93;8.43;;;;;;;22.06;nan;99469.94;5067912;28;20223;-74
2023/08/17 03:19:29;;;;;;;8.20;7.40;;;;;;;22.04;nan;99470.13;5073880;28;20464;-74
2023/08/17 03:21:54;;;;;;;10.27;7.67;;;;;;;22.00;nan;99474.16;5073046;28;20298;-74
2023/08/17 03:24:20;;;;;;;9.80;8.30;;;;;;;21.97;nan;99471.00;5071503;28;20199;-74
2023/08/17 03:26:46;;;;;;;12.37;8.87;;;;;;;21.95;nan;99465.81;5070637;28;20192;-74
2023/08/17 03:29:11;;;;;;;12.60;8.43;;;;;;;21.94;nan;99471.34;5074856;28;20705;-74
2023/08/17 03:31:37;;;;;;;10.00;8.83;;;;;;;21.90;nan;99468.22;5071702;28;20204;-74
2023/08/17 03:34:03;;;;;;;15.73;9.23;;;;;;;21.87;nan;99469.38;5072719;28;20426;-73
2023/08/17 03:36:28;;;;;;;12.77;8.57;;;;;;;21.85;nan;99471.41;5071174;28;20200;-74
2023/08/17 03:38:54;;;;;;;12.13;9.00;;;;;;;21.84;nan;99474.22;5059971;28;20200;-74
2023/08/17 03:41:23;;;;;;;10.97;8.57;;;;;;;21.78;nan;99469.59;5062757;28;20210;-74
2023/08/17 03:43:49;;;;;;;10.97;8.33;;;;;;;21.75;nan;99480.63;5063608;28;20200;-73
2023/08/17 03:46:14;;;;;;;13.07;9.20;;;;;;;21.74;nan;99468.25;5066048;28;20460;-74
2023/08/17 03:48:40;;;;;;;10.87;9.30;;;;;;;21.75;nan;99473.44;5060995;28;20455;-74
2023/08/17 03:51:05;;;;;;;10.67;8.00;;;;;;;21.79;nan;99466.75;5059414;28;20590;-73
2023/08/17 03:53:31;;;;;;;13.93;8.33;;;;;;;21.85;nan;99471.41;5057943;28;20271;-74
2023/08/17 03:55:57;;;;;;;10.67;7.80;;;;;;;21.93;nan;99477.69;5061698;28;20248;-74
2023/08/17 03:58:26;;;;;;;8.30;6.90;;;;;;;21.97;nan;99479.03;5064498;28;21078;-74
2023/08/17 04:00:52;;;;;;;11.33;6.63;;;;;;;22.02;nan;99479.34;5055924;28;20804;-74
2023/08/17 04:03:24;;;;;;;6.40;5.80;;;;;;;22.05;nan;99477.13;5064532;28;20407;-75
2023/08/17 04:05:49;;;;;;;7.73;5.37;;;;;;;22.09;nan;99488.34;5070276;28;20421;-75
2023/08/17 04:08:14;;;;;;;6.47;4.67;;;;;;;22.13;nan;99486.16;5074195;28;20357;-74
2023/08/17 04:10:40;;;;;;;8.10;6.13;;;;;;;22.14;nan;99485.13;5067822;28;20642;-74
2023/08/17 04:13:05;;;;;;;8.73;5.90;;;;;;;22.15;nan;99486.81;5062261;28;20199;-74
2023/08/17 04:15:31;;;;;;;7.00;5.93;;;;;;;22.13;nan;99491.50;5067200;28;20254;-74
2023/08/17 04:17:56;;;;;;;12.90;5.87;;;;;;;22.12;nan;99490.66;5061831;28;20622;-74
2023/08/17 04:20:22;;;;;;;11.47;6.93;;;;;;;22.08;nan;99492.00;5061765;28;20321;-74
2023/08/17 04:22:48;;;;;;;8.27;7.20;;;;;;;22.06;nan;99494.03;5066708;28;20197;-74
2023/08/17 04:25:13;;;;;;;9.13;6.63;;;;;;;22.06;nan;99496.69;5071505;28;20468;-75
2023/08/17 04:27:39;;;;;;;11.73;7.70;;;;;;;22.06;nan;99499.38;5071126;28;20200;-75
2023/08/17 04:30:05;;;;;;;12.97;8.00;;;;;;;22.07;nan;99498.38;5068072;28;20196;-74
2023/08/17 04:32:38;;;;;;;15.00;8.70;;;;;;;22.05;nan;99495.88;5072172;28;20212;-74
2023/08/17 04:35:04;;;;;;;15.03;9.23;;;;;;;22.02;nan;99490.03;5070702;28;20423;-74
2023/08/17 04:37:29;;;;;;;14.13;8.73;;;;;;;22.02;nan;99487.38;5070157;28;20199;-74
2023/08/17 04:39:54;;;;;;;16.90;9.23;;;;;;;22.04;nan;99490.72;5068474;28;20197;-74
2023/08/17 04:42:21;;;;;;;11.97;9.40;;;;;;;22.06;nan;99489.53;5067157;28;20646;-74
2023/08/17 04:44:47;;;;;;;11.50;9.17;;;;;;;22.08;nan;99486.66;5069692;28;20946;-75
2023/08/17 04:47:12;;;;;;;12.87;8.97;;;;;;;22.09;nan;99491.03;5071362;28;20216;-74
2023/08/17 04:49:38;;;;;;;16.30;9.87;;;;;;;22.08;nan;99486.66;5067351;28;20291;-74
2023/08/17 04:52:04;;;;;;;11.17;8.97;;;;;;;22.10;nan;99487.31;5068498;28;21134;-74
2023/08/17 04:54:29;;;;;;;10.93;8.40;;;;;;;22.10;nan;99480.13;5064023;28;20420;-74
2023/08/17 04:56:55;;;;;;;10.70;8.27;;;;;;;22.12;nan;99482.66;5069869;28;20203;-74
2023/08/17 04:59:21;;;;;;;12.20;8.33;;;;;;;22.12;nan;99492.50;5070614;28;20466;-74
2023/08/17 05:01:46;;;;;;;14.27;9.23;;;;;;;22.09;nan;99483.00;5071771;28;20215;-75
2023/08/17 05:04:12;;;;;;;12.53;9.57;;;;;;;22.06;nan;99486.84;5066149;28;20211;-74
2023/08/17 05:06:38;;;;;;;12.60;8.03;;;;;;;22.06;nan;99486.00;5071428;28;20344;-74
2023/08/17 05:09:04;;;;;;;16.33;10.27;;;;;;;22.06;nan;99483.31;5069988;28;20294;-74
2023/08/17 05:11:30;;;;;;;11.20;9.13;;;;;;;22.08;nan;99494.69;5072456;28;21003;-73
2023/08/17 05:13:56;;;;;;;13.83;9.63;;;;;;;22.09;nan;99502.56;5074416;28;20433;-74
2023/08/17 05:16:22;;;;;;;15.20;12.30;;;;;;;22.09;nan;99493.69;5069548;28;20298;-74
2023/08/17 05:18:47;;;;;;;13.73;10.20;;;;;;;22.08;nan;99495.50;5073362;28;20311;-73
2023/08/17 05:21:15;;;;;;;16.07;11.87;;;;;;;22.09;nan;99499.03;5075899;28;20473;-74
2023/08/17 05:23:40;;;;;;;14.10;10.57;;;;;;;22.09;nan;99496.38;5073243;28;20450;-74
2023/08/17 05:26:05;;;;;;;17.13;10.60;;;;;;;22.06;nan;99494.88;5068359;28;20694;-74
2023/08/17 05:28:31;;;;;;;17.60;10.27;;;;;;;22.08;nan;99497.34;5072419;28;20285;-74
2023/08/17 05:31:03;;;;;;;14.43;10.37;;;;;;;22.05;nan;99497.72;5074630;28;20204;-73
2023/08/17 05:33:28;;;;;;;11.50;9.07;;;;;;;22.04;nan;99496.06;5073527;28;20222;-74
2023/08/17 05:35:54;;;;;;;15.87;10.27;;;;;;;22.04;nan;99496.06;5069133;28;20516;-73
2023/08/17 05:38:20;;;;;;;15.83;11.07;;;;;;;22.05;nan;99492.38;5073186;28;20506;-74
2023/08/17 05:40:45;;;;;;;13.73;9.70;;;;;;;22.06;nan;99502.03;5076218;28;20441;-74
2023/08/17 05:43:11;;;;;;;15.90;10.40;;;;;;;22.07;nan;99506.41;5069897;28;20197;-74
2023/08/17 05:45:36;;;;;;;15.80;9.20;;;;;;;22.08;nan;99502.72;5072992;28;20249;-74
2023/08/17 05:48:02;;;;;;;13.90;10.37;;;;;;;22.09;nan;99501.72;5069416;28;20758;-74
2023/08/17 05:50:28;;;;;;;17.43;11.00;;;;;;;22.12;nan;99505.88;5074233;28;20363;-74
2023/08/17 05:52:54;;;;;;;17.27;12.17;;;;;;;22.12;nan;99506.72;5072235;28;20216;-74
2023/08/17 05:55:19;;;;;;;15.20;11.07;;;;;;;22.12;nan;99500.53;5069340;28;20449;-74
2023/08/17 05:57:45;;;;;;;16.20;10.23;;;;;;;22.13;nan;99503.03;5072058;28;20465;-74
2023/08/17 06:00:12;;;;;;;16.47;12.67;;;;;;;22.13;nan;99505.69;5076106;28;20608;-74
2023/08/17 06:02:42;;;;;;;17.00;12.00;;;;;;;22.13;nan;99504.88;5072624;28;20235;-74
2023/08/17 06:05:08;;;;;;;13.63;10.37;;;;;;;22.13;nan;99504.88;5074701;28;20432;-74
2023/08/17 06:07:34;;;;;;;16.83;10.97;;;;;;;22.09;nan;99504.41;5069417;28;20196;-73
2023/08/17 06:10:00;;;;;;;17.60;11.77;;;;;;;22.06;nan;99500.22;5071549;28;20424;-74
2023/08/17 06:12:25;;;;;;;16.53;13.00;;;;;;;22.04;nan;99498.72;5075651;28;20616;-74
2023/08/17 06:14:50;;;;;;;19.00;11.60;;;;;;;22.01;nan;99507.09;5074258;28;20243;-73
2023/08/17 06:17:16;;;;;;;20.40;11.60;;;;;;;21.95;nan;99503.25;5073505;28;20208;-74
2023/08/17 06:19:41;;;;;;;18.40;12.93;;;;;;;21.91;nan;99507.31;5070394;28;20288;-73
2023/08/17 06:22:07;;;;;;;20.10;12.00;;;;;;;21.91;nan;99517.16;5072878;28;20241;-73
2023/08/17 06:24:33;;;;;;;19.80;11.13;;;;;;;21.93;nan;99516.00;5072109;28;20196;-74
2023/08/17 06:26:58;;;;;;;19.67;13.83;;;;;;;22.00;nan;99521.47;5073052;28;20299;-74
2023/08/17 06:29:23;;;;;;;18.77;12.07;;;;;;;22.03;nan;99521.13;5070017;28;20464;-75
2023/08/17 06:31:49;;;;;;;19.10;11.77;;;;;;;22.04;nan;99523.63;5070995;28;20290;-73
2023/08/17 06:34:15;;;;;;;19.87;11.93;;;;;;;22.05;nan;99527.13;5063506;28;20994;-73
2023/08/17 06:36:40;;;;;;;22.23;11.10;;;;;;;22.08;nan;99534.81;5065326;28;20203;-74
2023/08/17 06:39:05;;;;;;;16.50;11.20;;;;;;;22.07;nan;99528.63;5062626;28;20452;-74
2023/08/17 06:41:31;;;;;;;17.20;11.63;;;;;;;22.07;nan;99525.13;5069049;28;20219;-74
2023/08/17 06:43:56;;;;;;;17.30;10.77;;;;;;;22.06;nan;99532.31;5065347;28;20196;-74
2023/08/17 06:46:22;;;;;;;17.20;11.10;;;;;;;22.07;nan;99528.63;5064779;28;20378;-74
2023/08/17 06:48:47;;;;;;;18.10;13.10;;;;;;;22.13;nan;99531.63;5065404;28;20216;-73
2023/08/17 06:51:12;;;;;;;13.90;11.33;;;;;;;22.16;nan;99528.59;5065860;28;20270;-74
2023/08/17 06:53:38;;;;;;;15.47;10.97;;;;;;;22.21;nan;99531.63;5061725;28;20660;-73
2023/08/17 06:56:03;;;;;;;23.20;12.27;;;;;;;22.24;nan;99533.94;5061354;28;20231;-73
2023/08/17 06:58:29;;;;;;;17.97;12.27;;;;;;;22.25;nan;99532.91;5065270;28;20208;-74
2023/08/17 07:00:54;;;;;;;18.13;11.73;;;;;;;22.25;nan;99536.44;5065084;28;20212;-73
2023/08/17 07:03:20;;;;;;;17.03;10.30;;;;;;;22.29;nan;99534.25;5055559;28;20179;-74
2023/08/17 07:05:46;;;;;;;15.47;10.77;;;;;;;22.36;nan;99537.91;5049455;28;20199;-74
2023/08/17 07:08:11;;;;;;;15.73;11.90;;;;;;;22.43;nan;99538.84;5067766;28;21543;-74
2023/08/17 07:10:36;;;;;;;12.87;10.10;;;;;;;22.50;nan;99537.16;5065007;28;20257;-74
2023/08/17 07:13:03;;;;;;;19.87;12.80;;;;;;;22.54;nan;99549.16;5064334;28;20220;-74
2023/08/17 07:15:32;;;;;;;16.67;10.83;;;;;;;22.58;nan;99540.78;5063342;28;20211;-73
2023/08/17 07:17:57;;;;;;;16.80;11.70;;;;;;;22.58;nan;99559.53;5065451;28;20437;-74
2023/08/17 07:20:23;;;;;;;16.63;10.73;;;;;;;22.56;nan;99551.66;5062904;28;20463;-74
2023/08/17 07:22:48;;;;;;;17.43;12.87;;;;;;;22.52;nan;99548.50;5061342;28;20227;-74
2023/08/17 07:25:13;;;;;;;12.47;10.37;;;;;;;22.48;nan;99551.72;5061208;28;20193;-74
2023/08/17 07:27:39;;;;;;;18.10;11.30;;;;;;;22.45;nan;99558.25;5065029;28;20249;-74
2023/08/17 07:30:05;;;;;;;15.23;12.10;;;;;;;22.50;nan;99563.09;5065770;28;20276;-73
2023/08/17 07:32:31;;;;;;;15.37;10.83;;;;;;;22.50;nan;99561.25;5062929;28;20579;-73
2023/08/17 07:34:56;;;;;;;15.90;10.70;;;;;;;22.53;nan;99570.75;5061890;28;20437;-73
2023/08/17 07:37:22;;;;;;;14.23;10.83;;;;;;;22.56;nan;99570.41;5063851;28;20223;-74
2023/08/17 07:39:47;;;;;;;11.00;9.63;;;;;;;22.58;nan;99573.75;5064707;28;21246;-74
2023/08/17 07:42:12;;;;;;;15.17;9.60;;;;;;;22.57;nan;99577.41;5061457;28;20287;-73
2023/08/17 07:44:39;;;;;;;10.97;8.50;;;;;;;22.56;nan;99570.41;5066027;28;20375;-74
2023/08/17 07:47:05;;;;;;;13.00;9.23;;;;;;;22.56;nan;99578.44;5062986;28;20196;-74
2023/08/17 07:49:30;;;;;;;13.20;9.50;;;;;;;22.55;nan;99574.09;5063084;28;20489;-73
2023/08/17 07:51:55;;;;;;;11.73;9.40;;;;;;;22.58;nan;99576.41;5053930;28;20228;-74
2023/08/17 07:54:21;;;;;;;17.03;11.60;;;;;;;22.62;nan;99584.94;5046672;28;20219;-73
2023/08/17 07:56:46;;;;;;;13.43;9.90;;;;;;;22.69;nan;99581.38;5042185;28;20201;-74
2023/08/17 07:59:11;;;;;;;13.13;10.23;;;;;;;22.78;nan;99578.66;5047647;28;20228;-73
2023/08/17 08:01:37;;;;;;;13.03;10.47;;;;;;;22.85;nan;99584.97;5041158;28;20236;-74
2023/08/17 08:04:03;;;;;;;14.27;9.73;;;;;;;22.89;nan;99583.59;5043495;28;20255;-73
2023/08/17 08:06:28;;;;;;;15.03;9.10;;;;;;;22.93;nan;99592.94;5045202;28;20208;-74
2023/08/17 08:08:54;;;;;;;12.83;9.43;;;;;;;22.93;nan;99595.63;5047049;28;20428;-74
2023/08/17 08:11:21;;;;;;;16.57;10.23;;;;;;;22.95;nan;99593.59;5048094;28;20200;-74
2023/08/17 08:13:47;;;;;;;11.43;9.27;;;;;;;23.00;nan;99595.78;5044261;28;20205;-74
2023/08/17 08:16:12;;;;;;;13.30;10.50;;;;;;;23.06;nan;99598.59;5041955;28;20470;-74
2023/08/17 08:18:38;;;;;;;13.00;9.37;;;;;;;23.09;nan;99595.53;5046856;28;20249;-74
2023/08/17 08:21:03;;;;;;;13.50;10.67;;;;;;;23.10;nan;99597.19;5037211;28;20204;-74
2023/08/17 08:23:29;;;;;;;15.23;9.63;;;;;;;23.13;nan;99604.03;5047596;28;20204;-74
2023/08/17 08:25:54;;;;;;;13.17;9.30;;;;;;;23.17;nan;99602.69;5049367;28;20288;-74
2023/08/17 08:28:20;;;;;;;12.30;9.10;;;;;;;23.19;nan;99597.97;5047478;28;21417;-74
2023/08/17 08:30:45;;;;;;;15.03;10.43;;;;;;;23.24;nan;99602.78;5035213;28;20212;-74
2023/08/17 08:33:10;;;;;;;17.23;10.37;;;;;;;23.28;nan;99601.44;5027544;28;20239;-74
2023/08/17 08:35:36;;;;;;;13.20;10.50;;;;;;;23.35;nan;99605.88;5046030;28;20216;-74
2023/08/17 08:38:01;;;;;;;14.10;9.63;;;;;;;23.44;nan;99609.34;5047431;28;20266;-73
2023/08/17 08:40:29;;;;;;;9.70;8.23;;;;;;;23.46;nan;99603.78;5041158;28;20192;-74
2023/08/17 08:42:57;;;;;;;13.50;8.93;;;;;;;23.50;nan;99602.41;5021752;28;20619;-74
2023/08/17 08:45:23;;;;;;;13.30;8.27;;;;;;;23.49;nan;99598.88;5035450;28;20863;-74
2023/08/17 08:47:50;;;;;;;11.60;8.40;;;;;;;23.52;nan;99603.03;5046750;28;20425;-74
2023/08/17 08:50:21;;;;;;;14.53;9.00;;;;;;;23.56;nan;99597.16;5047472;28;20805;-74
2023/08/17 08:52:58;;;;;;;9.90;8.83;;;;;;;23.56;nan;99599.84;5038668;28;22034;-75
2023/08/17 08:55:26;;;;;;;13.17;8.60;;;;;;;23.58;nan;99595.13;5040110;28;20430;-75
2023/08/17 08:57:53;;;;;;;13.07;10.60;;;;;;;23.71;nan;99596.34;5038622;28;20436;-74
2023/08/17 09:00:19;;;;;;;11.17;8.87;;;;;;;23.89;nan;99587.97;5047730;28;20504;-74
2023/08/17 09:02:45;;;;;;;11.03;9.00;;;;;;;24.05;nan;99591.31;5049975;28;20507;-75
2023/08/17 09:05:11;;;;;;;11.60;9.17;;;;;;;24.21;nan;99601.03;5042236;28;20362;-76
2023/08/17 09:07:37;;;;;;;10.13;7.73;;;;;;;24.28;nan;99591.22;5045289;28;20454;-75
2023/08/17 09:10:03;;;;;;;11.80;9.20;;;;;;;24.27;nan;99589.53;5053843;28;20426;-75
2023/08/17 09:12:30;;;;;;;12.30;8.47;;;;;;;24.27;nan;99586.03;5051027;28;20796;-74
2023/08/17 09:14:55;;;;;;;11.50;8.57;;;;;;;24.32;nan;99591.66;5052565;28;21175;-74
2023/08/17 09:17:25;;;;;;;11.50;7.97;;;;;;;24.37;nan;99586.56;5032196;28;20910;-75
2023/08/17 09:19:50;;;;;;;10.50;9.17;;;;;;;24.43;nan;99588.50;5043179;28;20204;-75
2023/08/17 09:22:36;;;;;;;9.97;8.30;;;;;;;24.50;nan;99583.25;5040979;28;20468;-75
2023/08/17 09:25:01;;;;;;;10.40;8.20;;;;;;;24.65;nan;99575.16;5029189;28;20206;-74
2023/08/17 09:27:27;;;;;;;10.73;8.00;;;;;;;24.83;nan;99575.56;5042601;28;21363;-75
2023/08/17 09:29:52;;;;;;;11.00;8.50;;;;;;;24.99;nan;99573.66;5026416;28;20210;-75
2023/08/17 09:32:17;;;;;;;11.30;7.87;;;;;;;25.09;nan;99580.38;5044855;28;20285;-75
2023/08/17 09:34:46;;;;;;;14.30;9.50;;;;;;;25.21;nan;99583.41;5048191;28;21148;-75
2023/08/17 09:37:13;;;;;;;12.67;9.63;;;;;;;25.28;nan;99584.28;5043099;28;20490;-75
2023/08/17 09:39:38;;;;;;;11.67;9.27;;;;;;;25.33;nan;99579.16;5034115;28;20942;-75
2023/08/17 09:42:04;;;;;;;9.70;8.20;;;;;;;25.45;nan;99584.84;5042577;28;20475;-75
2023/08/17 09:44:29;;;;;;;12.13;8.67;;;;;;;25.60;nan;99574.00;5049828;28;20202;-75
2023/08/17 09:46:56;;;;;;;12.00;9.27;;;;;;;25.75;nan;99571.19;5053151;28;20204;-75
2023/08/17 09:49:24;;;;;;;13.07;9.40;;;;;;;25.80;nan;99572.25;5044568;28;20966;-75
2023/08/17 09:51:49;;;;;;;12.67;9.00;;;;;;;25.79;nan;99570.63;5044072;28;20469;-75
2023/08/17 09:54:22;;;;;;;12.63;10.70;;;;;;;25.86;nan;99567.16;5044689;28;20652;-75
2023/08/17 09:56:50;;;;;;;11.53;8.93;;;;;;;25.97;nan;99563.91;5048797;28;20204;-75
2023/08/17 09:59:15;;;;;;;14.10;10.40;;;;;;;26.17;nan;99564.84;5052704;28;21346;-75
2023/08/17 10:01:42;;;;;;;14.63;9.80;;;;;;;26.35;nan;99564.28;5045858;28;20436;-75
2023/08/17 10:04:07;;;;;;;12.60;9.20;;;;;;;26.46;nan;99562.88;5053901;28;20783;-75
2023/08/17 10:06:35;;;;;;;12.90;10.30;;;;;;;26.56;nan;99555.28;5043193;28;20466;-76
2023/08/17 10:09:01;;;;;;;11.73;9.23;;;;;;;26.59;nan;99544.09;5032907;28;20282;-76
2023/08/17 10:11:29;;;;;;;15.80;8.97;;;;;;;26.62;nan;99551.75;5038586;28;20472;-75
2023/08/17 10:14:02;;;;;;;10.50;9.40;;;;;;;26.84;nan;99543.53;5039518;28;20449;-75
2023/08/17 10:16:44;;;;;;;9.87;8.87;;;;;;;27.05;nan;99537.94;5036490;28;21000;-75
2023/08/17 10:19:19;;;;;;;12.00;9.10;;;;;;;27.06;nan;99542.31;5046197;28;20856;-75
2023/08/17 10:21:53;;;;;;;9.93;8.83;;;;;;;27.04;nan;99536.31;5041488;28;20470;-76
2023/08/17 10:24:19;;;;;;;9.03;8.10;;;;;;;27.15;nan;99532.97;5050708;28;20453;-76
2023/08/17 10:26:45;;;;;;;9.67;8.17;;;;;;;27.39;nan;99530.72;5047313;28;20458;-75
2023/08/17 10:29:11;;;;;;;10.77;8.10;;;;;;;27.71;nan;99520.94;5052731;28;20249;-76
2023/08/17 10:31:38;;;;;;;8.67;6.90;;;;;;;27.92;nan;99524.41;5050070;28;20843;-76
2023/08/17 10:34:04;;;;;;;8.13;7.43;;;;;;;28.13;nan;99518.72;5043683;28;20543;-75
2023/08/17 10:36:31;;;;;;;10.63;8.13;;;;;;;28.26;nan;99517.03;5030988;28;20451;-75
2023/08/17 10:39:22;;;;;;;10.40;9.00;;;;;;;28.24;nan;99514.53;5047168;28;20549;-76
2023/08/17 10:41:49;;;;;;;10.50;8.53;;;;;;;28.31;nan;99509.13;5034132;28;20468;-75
2023/08/17 10:44:14;;;;;;;8.97;8.07;;;;;;;28.34;nan;99506.78;5047744;28;20487;-75
2023/08/17 10:46:40;;;;;;;8.00;6.53;;;;;;;28.31;nan;99501.84;5041784;28;21109;-76
2023/08/17 10:49:23;;;;;;;8.30;7.50;;;;;;;28.45;nan;99494.50;5043889;28;20472;-76
2023/08/17 10:52:07;;;;;;;8.13;7.33;;;;;;;28.67;nan;99479.59;5050194;28;20239;-76
2023/08/17 10:54:39;;;;;;;9.23;8.33;;;;;;;28.92;nan;99478.78;5063474;28;20454;-75
2023/08/17 10:57:25;;;;;;;9.83;7.37;;;;;;;29.05;nan;99486.81;5056078;28;20424;-76
2023/08/17 11:00:11;;;;;;;7.67;6.97;;;;;;;29.15;nan;99477.41;5061083;28;20446;-76
2023/08/17 11:02:38;;;;;;;9.30;8.23;;;;;;;29.23;nan;99477.94;5059622;28;20472;-75
2023/08/17 11:05:04;;;;;;;7.93;7.13;;;;;;;29.24;nan;99471.47;5067349;28;20450;-76
2023/08/17 11:07:43;;;;;;;8.83;7.93;;;;;;;29.29;nan;99462.69;5064195;28;20519;-76
2023/08/17 11:10:18;;;;;;;8.33;7.40;;;;;;;29.35;nan;99456.38;5062464;28;20549;-76
2023/08/17 11:12:43;;;;;;;13.93;7.23;;;;;;;29.38;nan;99444.28;5051131;28;20992;-76
2023/08/17 11:15:09;;;;;;;7.37;6.63;;;;;;;29.50;nan;99447.91;5054295;28;20458;-75
2023/08/17 11:17:34;;;;;;;8.17;6.77;;;;;;;29.59;nan;99443.84;5056518;28;20572;-75
2023/08/17 11:20:00;;;;;;;8.40;7.47;;;;;;;29.64;nan;99444.03;5063422;28;20200;-76
2023/08/17 11:22:25;;;;;;;11.27;6.40;;;;;;;29.62;nan;99431.75;5051640;28;20260;-76
2023/08/17 11:24:52;;;;;;;6.63;6.00;;;;;;;29.67;nan;99427.31;5050788;28;20213;-75
2023/08/17 11:27:18;;;;;;;7.07;6.37;;;;;;;29.81;nan;99421.75;5057109;28;20511;-76
2023/08/17 11:29:44;;;;;;;11.23;7.70;;;;;;;29.96;nan;99425.72;5065048;28;20868;-76
2023/08/17 11:32:11;;;;;;;7.87;7.10;;;;;;;30.06;nan;99419.75;5068230;28;20986;-76
2023/08/17 11:34:36;;;;;;;8.97;6.80;;;;;;;30.19;nan;99413.31;5067362;28;20814;-76
2023/08/17 11:37:02;;;;;;;8.33;6.40;;;;;;;30.08;nan;99414.91;5062867;28;20493;-76
2023/08/17 11:39:32;;;;;;;6.47;5.90;;;;;;;30.08;nan;99414.09;5062352;28;20400;-76
2023/08/17 11:41:57;;;;;;;6.90;6.03;;;;;;;30.09;nan;99413.06;5065180;28;20262;-76